Time;durP1;ratioP1;P1;durP2;ratioP2;P2;SDS_P1;SDS_P2;PMS_P1;PMS_P2;Temp;Humidity;BMP_temperature;BMP_pressure;BME280_temperature;BME280_humidity;BME280_pressure;Samples;Min_cycle;Max_cycle;Signal;HPM_P1;HPM_P2
2020/12/11 00:00:01;;;;;;;39.58;14.65;;;;;;;0.63;71.99;100346.88;679013;29;44332;-66
2020/12/11 00:00:22;;;;;;;38.38;14.43;;;;;;;0.65;71.94;100355.56;679754;29;23512;-65
2020/12/11 00:00:44;;;;;;;39.47;14.63;;;;;;;0.65;71.91;100355.56;679723;29;23465;-65
2020/12/11 00:01:06;;;;;;;39.60;14.55;;;;;;;0.62;71.95;100359.31;678603;28;63339;-64
2020/12/11 00:01:27;;;;;;;37.53;14.20;;;;;;;0.63;72.15;100353.03;680234;29;23504;-66
2020/12/11 00:01:48;;;;;;;33.47;13.80;;;;;;;0.64;71.94;100353.88;680832;28;949;-66
2020/12/11 00:02:09;;;;;;;36.20;13.73;;;;;;;0.65;72.04;100348.44;679506;28;21535;-66
2020/12/11 00:02:34;;;;;;;33.45;13.82;;;;;;;0.64;71.92;100349.44;678877;29;46317;-66
2020/12/11 00:02:55;;;;;;;36.40;14.32;;;;;;;0.65;71.94;100352.91;676565;29;115967;-64
2020/12/11 00:03:17;;;;;;;41.00;14.02;;;;;;;0.65;71.87;100352.91;679385;28;44329;-66
2020/12/11 00:03:38;;;;;;;36.20;13.98;;;;;;;0.65;72.05;100355.56;680190;29;21560;-65
2020/12/11 00:04:00;;;;;;;38.55;14.38;;;;;;;0.63;72.08;100350.38;680170;28;22380;-65
2020/12/11 00:04:21;;;;;;;36.60;14.23;;;;;;;0.65;72.10;100351.09;679499;28;47468;-66
2020/12/11 00:04:42;;;;;;;36.05;14.35;;;;;;;0.67;72.02;100359.78;680453;28;9576;-66
2020/12/11 00:05:04;;;;;;;35.50;14.00;;;;;;;0.68;71.89;100356.16;678477;29;43164;-64
2020/12/11 00:05:26;;;;;;;38.88;14.15;;;;;;;0.69;71.93;100360.53;679749;29;22197;-66
2020/12/11 00:05:47;;;;;;;37.53;14.40;;;;;;;0.69;71.98;100359.66;679061;29;46353;-66
2020/12/11 00:06:08;;;;;;;36.50;14.35;;;;;;;0.68;71.92;100356.16;680058;28;22414;-64
2020/12/11 00:06:29;;;;;;;37.15;13.48;;;;;;;0.68;71.76;100353.50;679721;29;22437;-66
2020/12/11 00:06:51;;;;;;;36.15;13.80;;;;;;;0.68;71.81;100353.50;679242;29;44411;-66
2020/12/11 00:07:12;;;;;;;36.13;14.32;;;;;;;0.67;71.92;100354.47;680049;28;21549;-64
2020/12/11 00:07:35;;;;;;;36.47;14.15;;;;;;;0.67;71.82;100351.81;678973;29;45292;-66
2020/12/11 00:07:56;;;;;;;34.65;13.80;;;;;;;0.66;71.75;100350.13;679079;29;45016;-66
2020/12/11 00:08:17;;;;;;;34.80;14.38;;;;;;;0.68;71.87;100353.50;680039;28;23428;-66
2020/12/11 00:08:40;;;;;;;33.13;13.50;;;;;;;0.66;71.83;100347.47;679418;29;46335;-66
2020/12/11 00:09:01;;;;;;;39.88;14.55;;;;;;;0.66;71.80;100347.47;678615;29;44412;-66
2020/12/11 00:09:22;;;;;;;35.27;14.10;;;;;;;0.65;71.82;100344.94;679742;29;22537;-65
2020/12/11 00:09:44;;;;;;;33.22;13.30;;;;;;;0.62;71.92;100346.03;679399;29;35510;-66
2020/12/11 00:10:05;;;;;;;35.15;13.32;;;;;;;0.63;72.22;100352.22;680127;28;22429;-66
2020/12/11 00:10:28;;;;;;;37.88;14.52;;;;;;;0.62;71.88;100347.84;679396;29;46657;-66
2020/12/11 00:10:49;;;;;;;39.63;14.13;;;;;;;0.62;71.88;100354.00;678209;29;70214;-65
2020/12/11 00:11:11;;;;;;;36.75;13.95;;;;;;;0.62;72.07;100346.03;679990;28;22548;-65
2020/12/11 00:11:32;;;;;;;34.70;14.18;;;;;;;0.62;71.95;100346.03;680391;29;13407;-64
2020/12/11 00:11:53;;;;;;;35.17;13.93;;;;;;;0.63;72.01;100350.38;680768;28;936;-65
2020/12/11 00:12:15;;;;;;;34.78;14.35;;;;;;;0.63;71.96;100345.06;688909;28;4699;-65
2020/12/11 00:12:37;;;;;;;35.38;13.65;;;;;;;0.61;72.17;100347.00;694070;28;14930;-65
2020/12/11 00:12:59;;;;;;;33.10;14.27;;;;;;;0.54;72.24;100338.66;693009;28;861;-65
2020/12/11 00:13:20;;;;;;;37.63;14.70;;;;;;;0.60;72.17;100345.31;692212;28;22548;-65
2020/12/11 00:13:41;;;;;;;38.28;14.13;;;;;;;0.58;72.27;100347.25;691823;28;975;-66
2020/12/11 00:14:03;;;;;;;38.80;14.23;;;;;;;0.57;72.37;100355.34;691289;28;22544;-65
2020/12/11 00:14:24;;;;;;;37.53;14.20;;;;;;;0.59;72.29;100354.25;691315;28;45248;-65
2020/12/11 00:14:46;;;;;;;36.45;14.13;;;;;;;0.60;72.45;100347.97;692403;28;22414;-66
2020/12/11 00:15:08;;;;;;;38.65;14.93;;;;;;;0.57;72.32;100342.06;689072;28;22412;-66
2020/12/11 00:15:30;;;;;;;38.92;15.13;;;;;;;0.58;72.26;100347.25;688451;28;68506;-65
2020/12/11 00:15:51;;;;;;;38.45;14.50;;;;;;;0.61;72.28;100362.09;692683;28;8742;-66
2020/12/11 00:16:12;;;;;;;37.55;14.40;;;;;;;0.61;72.21;100356.78;691475;28;45199;-65
2020/12/11 00:16:35;;;;;;;35.15;13.75;;;;;;;0.60;72.38;100358.59;692333;28;23465;-66
2020/12/11 00:16:56;;;;;;;33.58;13.63;;;;;;;0.60;72.28;100345.31;690057;28;70191;-63
2020/12/11 00:17:18;;;;;;;40.58;14.30;;;;;;;0.62;72.28;100347.84;692936;28;5668;-66
2020/12/11 00:17:39;;;;;;;37.50;13.90;;;;;;;0.63;72.18;100344.22;692022;28;38112;-66
2020/12/11 00:18:01;;;;;;;33.30;13.80;;;;;;;0.60;72.32;100344.47;692600;28;20461;-65
2020/12/11 00:18:22;;;;;;;36.58;13.90;;;;;;;0.59;72.26;100348.09;692165;28;22231;-66
2020/12/11 00:18:44;;;;;;;37.63;14.10;;;;;;;0.60;72.33;100341.81;691552;28;46361;-65
2020/12/11 00:19:05;;;;;;;35.90;14.18;;;;;;;0.58;72.25;100344.59;692289;28;21658;-65
2020/12/11 00:19:26;;;;;;;34.08;13.85;;;;;;;0.62;72.12;100342.53;691537;28;46223;-65
2020/12/11 00:19:48;;;;;;;34.08;12.77;;;;;;;0.62;72.28;100342.53;692080;28;21313;-66
2020/12/11 00:20:09;;;;;;;34.13;13.60;;;;;;;0.60;72.13;100339.16;691397;28;46314;-66
2020/12/11 00:20:31;;;;;;;32.97;13.05;;;;;;;0.63;71.99;100341.56;692374;28;22416;-65
2020/12/11 00:20:52;;;;;;;36.47;13.60;;;;;;;0.62;72.21;100346.03;691915;28;24179;-66
2020/12/11 00:21:13;;;;;;;37.70;14.52;;;;;;;0.63;72.10;100345.06;690934;28;44397;-65
2020/12/11 00:21:38;;;;;;;35.38;14.32;;;;;;;0.63;72.07;100345.06;691981;28;23116;-64
2020/12/11 00:22:00;;;;;;;33.83;13.88;;;;;;;0.60;72.19;100333.84;689528;28;107478;-66
2020/12/11 00:22:23;;;;;;;34.30;13.60;;;;;;;0.60;72.16;100341.81;692614;28;4560;-66
2020/12/11 00:22:44;;;;;;;33.93;13.30;;;;;;;0.59;72.11;100340.13;692262;28;23468;-66
2020/12/11 00:23:06;;;;;;;31.73;12.77;;;;;;;0.60;72.13;100342.66;691684;28;45093;-66
2020/12/11 00:23:27;;;;;;;32.17;12.90;;;;;;;0.60;72.15;100332.03;693570;28;22638;-65
2020/12/11 00:23:49;;;;;;;33.33;13.32;;;;;;;0.62;72.19;100337.22;692895;28;46179;-66
2020/12/11 00:24:11;;;;;;;34.45;13.55;;;;;;;0.60;72.00;100337.34;694063;28;10823;-66
2020/12/11 00:24:33;;;;;;;31.83;12.32;;;;;;;0.61;72.00;100340.84;693051;28;43856;-65
2020/12/11 00:24:55;;;;;;;34.42;13.07;;;;;;;0.61;71.99;100344.34;693441;28;23162;-64
2020/12/11 00:25:16;;;;;;;34.53;13.27;;;;;;;0.59;72.05;100334.81;693013;28;23557;-66
2020/12/11 00:25:37;;;;;;;33.80;12.55;;;;;;;0.62;71.88;100343.38;691368;28;44411;-66
2020/12/11 00:25:58;;;;;;;31.70;12.80;;;;;;;0.59;71.79;100338.28;692565;28;22432;-65
2020/12/11 00:26:20;;;;;;;30.60;12.52;;;;;;;0.62;71.81;100342.53;692378;28;21537;-66
2020/12/11 00:26:41;;;;;;;35.08;12.98;;;;;;;0.61;71.87;100338.16;692084;28;32611;-66
2020/12/11 00:27:03;;;;;;;34.97;12.68;;;;;;;0.61;72.03;100338.16;692431;28;22554;-65
2020/12/11 00:27:24;;;;;;;32.10;12.13;;;;;;;0.63;71.72;100336.25;691768;28;46338;-66
2020/12/11 00:27:45;;;;;;;28.27;11.30;;;;;;;0.62;71.83;100331.91;692424;28;22419;-66
2020/12/11 00:28:07;;;;;;;26.00;11.48;;;;;;;0.64;71.69;100341.44;692827;28;12154;-66
2020/12/11 00:28:29;;;;;;;30.10;13.00;;;;;;;0.62;71.72;100338.06;691565;28;45369;-66
2020/12/11 00:28:50;;;;;;;31.33;12.90;;;;;;;0.63;71.65;100333.59;692387;28;18786;-66
2020/12/11 00:29:11;;;;;;;31.38;12.88;;;;;;;0.64;71.79;100332.63;692551;28;23474;-65
2020/12/11 00:29:32;;;;;;;30.92;12.30;;;;;;;0.62;71.60;100337.22;692593;28;20979;-66
2020/12/11 00:29:54;;;;;;;33.63;13.40;;;;;;;0.64;71.62;100335.28;691732;28;45449;-66
2020/12/11 00:30:16;;;;;;;33.85;13.05;;;;;;;0.63;71.71;100330.94;692491;28;22386;-66
2020/12/11 00:30:37;;;;;;;33.22;13.18;;;;;;;0.63;71.45;100331.78;691646;28;46360;-66
2020/12/11 00:30:59;;;;;;;34.40;12.65;;;;;;;0.59;71.48;100335.63;693214;28;909;-65
2020/12/11 00:31:23;;;;;;;33.08;12.30;;;;;;;0.61;71.65;100333.72;692919;28;23473;-66
2020/12/11 00:31:44;;;;;;;29.63;13.48;;;;;;;0.61;71.67;100328.41;690096;28;84298;-66
2020/12/11 00:32:06;;;;;;;29.83;12.55;;;;;;;0.63;71.52;100330.94;692308;28;22397;-66
2020/12/11 00:32:27;;;;;;;30.05;11.65;;;;;;;0.61;71.35;100330.19;690902;28;66314;-65
2020/12/11 00:32:49;;;;;;;29.23;11.73;;;;;;;0.62;71.54;100334.56;691789;28;46331;-66
2020/12/11 00:33:10;;;;;;;30.05;12.32;;;;;;;0.63;71.51;100336.25;692419;28;23311;-66
2020/12/11 00:33:31;;;;;;;32.72;12.45;;;;;;;0.61;71.64;100327.53;692747;28;23603;-65
2020/12/11 00:33:53;;;;;;;27.35;11.85;;;;;;;0.63;71.68;100331.78;691750;28;37926;-65
2020/12/11 00:34:15;;;;;;;29.88;12.63;;;;;;;0.65;71.44;100329.00;691415;28;45881;-66
2020/12/11 00:34:36;;;;;;;31.33;12.52;;;;;;;0.57;71.42;100318.97;692580;28;21550;-65
2020/12/11 00:34:58;;;;;;;31.45;11.85;;;;;;;0.59;71.55;100322.34;691208;28;45136;-66
2020/12/11 00:35:19;;;;;;;26.02;11.70;;;;;;;0.64;71.57;100327.28;692203;28;22059;-65
2020/12/11 00:35:40;;;;;;;27.88;12.15;;;;;;;0.63;71.33;100326.47;692391;28;23437;-66
2020/12/11 00:36:02;;;;;;;31.25;12.98;;;;;;;0.63;71.46;100318.50;691743;28;22468;-66
2020/12/11 00:36:24;;;;;;;31.63;12.75;;;;;;;0.62;71.37;100324.75;692018;28;21549;-65
2020/12/11 00:36:45;;;;;;;33.45;12.88;;;;;;;0.62;71.44;100322.09;691654;28;46132;-64
2020/12/11 00:37:06;;;;;;;31.23;12.82;;;;;;;0.61;71.42;100316.91;692422;28;23470;-66
2020/12/11 00:37:28;;;;;;;30.25;12.82;;;;;;;0.63;71.55;100317.66;691599;28;44370;-64
2020/12/11 00:37:49;;;;;;;29.02;11.93;;;;;;;0.60;71.50;100317.91;692530;28;23163;-66
2020/12/11 00:38:10;;;;;;;32.15;11.77;;;;;;;0.61;71.38;100316.91;692285;28;23488;-65
2020/12/11 00:38:32;;;;;;;28.27;11.88;;;;;;;0.62;71.41;100318.63;694036;28;46364;-66
2020/12/11 00:38:54;;;;;;;32.10;13.07;;;;;;;0.61;71.42;100323.09;694041;28;23429;-64
2020/12/11 00:39:15;;;;;;;30.80;12.85;;;;;;;0.60;71.59;100320.56;691471;28;45996;-64
2020/12/11 00:39:37;;;;;;;28.95;12.50;;;;;;;0.60;71.55;100320.56;693014;28;21566;-64
2020/12/11 00:39:58;;;;;;;28.17;12.10;;;;;;;0.59;71.62;100317.03;692924;28;47209;-66
2020/12/11 00:40:19;;;;;;;28.50;12.15;;;;;;;0.60;71.58;100321.41;693075;28;22338;-65
2020/12/11 00:40:40;;;;;;;30.65;12.25;;;;;;;0.58;71.65;100317.16;691169;28;46716;-66
2020/12/11 00:41:02;;;;;;;32.70;12.15;;;;;;;0.58;71.61;100317.16;692045;28;22393;-66
2020/12/11 00:41:24;;;;;;;30.25;12.13;;;;;;;0.61;71.44;100316.91;691549;28;45222;-66
2020/12/11 00:41:45;;;;;;;28.60;11.70;;;;;;;0.59;71.67;100321.50;693062;28;1193;-66
2020/12/11 00:42:06;;;;;;;29.98;12.45;;;;;;;0.58;71.71;100318.03;693263;28;989;-65
2020/12/11 00:42:28;;;;;;;33.42;12.93;;;;;;;0.58;71.63;100318.03;691829;28;35623;-65
2020/12/11 00:42:49;;;;;;;33.63;14.00;;;;;;;0.58;71.65;100315.38;691721;28;45208;-65
2020/12/11 00:43:11;;;;;;;29.08;12.10;;;;;;;0.58;71.50;100315.38;694756;28;23186;-66
2020/12/11 00:43:32;;;;;;;30.80;12.52;;;;;;;0.59;71.62;100311.72;694580;28;22380;-66
2020/12/11 00:43:53;;;;;;;30.10;12.07;;;;;;;0.59;71.61;100310.88;694703;28;23646;-66
2020/12/11 00:44:15;;;;;;;31.02;11.88;;;;;;;0.60;71.53;100310.75;693438;28;46315;-66
2020/12/11 00:44:36;;;;;;;33.22;13.45;;;;;;;0.59;71.50;100311.72;694935;28;22498;-66
2020/12/11 00:44:57;;;;;;;33.95;13.35;;;;;;;0.60;71.71;100308.09;693678;28;44470;-65
2020/12/11 00:45:18;;;;;;;29.23;11.88;;;;;;;0.61;71.68;100308.94;692344;28;22367;-65
2020/12/11 00:45:40;;;;;;;31.08;12.23;;;;;;;0.60;71.70;100302.78;692194;28;23350;-65
2020/12/11 00:46:02;;;;;;;28.05;12.07;;;;;;;0.60;71.50;100307.28;691357;28;45250;-64
2020/12/11 00:46:24;;;;;;;30.15;12.55;;;;;;;0.60;71.48;100310.75;691141;28;45568;-66
2020/12/11 00:46:45;;;;;;;32.83;13.10;;;;;;;0.61;71.52;100308.94;692088;28;23062;-64
2020/12/11 00:47:07;;;;;;;34.80;13.48;;;;;;;0.62;71.55;100314.13;689320;28;22126;-66
2020/12/11 00:47:28;;;;;;;33.38;13.15;;;;;;;0.62;71.43;100311.47;687047;28;21645;-65
2020/12/11 00:47:49;;;;;;;31.65;13.45;;;;;;;0.62;71.38;100305.31;687253;28;22373;-66
2020/12/11 00:48:11;;;;;;;34.08;13.93;;;;;;;0.63;71.66;100313.19;684642;28;46216;-65
2020/12/11 00:48:32;;;;;;;33.63;13.65;;;;;;;0.62;71.57;100311.47;684597;28;46411;-66
2020/12/11 00:48:53;;;;;;;37.28;12.98;;;;;;;0.61;71.55;100311.59;685979;28;23338;-64
2020/12/11 00:49:15;;;;;;;35.00;13.27;;;;;;;0.60;71.61;100310.75;688938;28;22276;-66
2020/12/11 00:49:37;;;;;;;32.85;13.57;;;;;;;0.61;71.48;100309.81;690314;28;69481;-66
2020/12/11 00:49:58;;;;;;;34.88;13.40;;;;;;;0.62;71.53;100305.31;693946;28;19879;-64
2020/12/11 00:50:20;;;;;;;36.92;13.15;;;;;;;0.61;71.51;100312.47;694584;28;23485;-63
2020/12/11 00:50:42;;;;;;;36.75;13.32;;;;;;;0.61;71.47;100309.81;692390;28;46687;-65
2020/12/11 00:51:03;;;;;;;33.75;13.52;;;;;;;0.62;71.43;100306.16;692723;28;46458;-64
2020/12/11 00:51:25;;;;;;;32.95;13.38;;;;;;;0.62;71.42;100305.31;690740;28;21707;-64
2020/12/11 00:51:46;;;;;;;31.38;13.45;;;;;;;0.52;71.49;100298.09;688406;28;15251;-64
2020/12/11 00:52:08;;;;;;;33.60;13.43;;;;;;;0.60;71.40;100307.28;688029;28;21902;-65
2020/12/11 00:52:33;;;;;;;30.27;12.73;;;;;;;0.61;71.44;100312.47;673189;29;157523;-64
2020/12/11 00:52:55;;;;;;;33.03;12.63;;;;;;;0.61;71.47;100312.47;678378;29;21741;-65
2020/12/11 00:53:17;;;;;;;35.78;12.93;;;;;;;0.59;71.63;100309.06;679146;29;7130;-65
2020/12/11 00:53:40;;;;;;;37.50;13.27;;;;;;;0.61;71.49;100308.94;677690;29;46399;-64
2020/12/11 00:54:03;;;;;;;32.92;13.07;;;;;;;0.62;71.53;100314.13;678493;29;67372;-65
2020/12/11 00:54:25;;;;;;;33.70;12.93;;;;;;;0.60;71.61;100305.44;678333;28;67501;-64
2020/12/11 00:54:46;;;;;;;33.78;12.88;;;;;;;0.61;71.48;100306.28;679468;29;44367;-64
2020/12/11 00:55:07;;;;;;;34.70;13.30;;;;;;;0.63;71.51;100309.69;680759;29;23291;-64
2020/12/11 00:55:29;;;;;;;34.63;13.30;;;;;;;0.62;71.44;100305.31;682062;28;23446;-64
2020/12/11 00:55:50;;;;;;;34.58;13.57;;;;;;;0.61;71.46;100306.28;682733;28;46350;-64
2020/12/11 00:56:12;;;;;;;34.80;13.70;;;;;;;0.63;71.40;100304.38;683020;28;22398;-64
2020/12/11 00:56:33;;;;;;;32.47;13.25;;;;;;;0.61;71.66;100304.50;681344;28;24639;-64
2020/12/11 00:56:55;;;;;;;35.88;13.32;;;;;;;0.62;71.43;100307.97;681770;28;11590;-64
2020/12/11 00:57:16;;;;;;;36.67;13.52;;;;;;;0.61;71.54;100308.94;680565;28;45742;-64
2020/12/11 00:57:37;;;;;;;34.92;13.63;;;;;;;0.62;71.57;100308.81;681483;28;21547;-64
2020/12/11 00:57:58;;;;;;;32.63;12.98;;;;;;;0.62;71.50;100300.00;681205;28;22437;-64
2020/12/11 00:58:20;;;;;;;34.15;12.60;;;;;;;0.62;71.42;100300.84;680190;29;46270;-62
2020/12/11 00:58:41;;;;;;;31.20;12.77;;;;;;;0.56;71.59;100298.69;681187;29;22427;-64
2020/12/11 00:59:03;;;;;;;31.73;13.10;;;;;;;0.63;71.54;100307.84;679930;28;23544;-64
2020/12/11 00:59:24;;;;;;;32.85;12.90;;;;;;;0.63;71.56;100301.72;680334;29;46359;-64
2020/12/11 00:59:46;;;;;;;37.08;13.43;;;;;;;0.63;71.54;100307.84;684181;28;24369;-64
2020/12/11 01:00:12;;;;;;;35.38;13.35;;;;;;;0.61;71.46;100309.81;680282;29;46316;-63
2020/12/11 01:00:34;;;;;;;34.13;12.88;;;;;;;0.57;71.61;100297.72;678756;28;136592;-65
2020/12/11 01:00:55;;;;;;;30.92;12.82;;;;;;;0.61;71.54;100306.28;681883;28;45152;-64
2020/12/11 01:01:16;;;;;;;29.58;12.48;;;;;;;0.61;71.63;100300.97;681729;28;10128;-64
2020/12/11 01:01:38;;;;;;;32.30;13.45;;;;;;;0.61;71.55;100300.97;681808;28;7931;-65
2020/12/11 01:01:59;;;;;;;35.17;14.13;;;;;;;0.61;71.56;100301.84;680020;29;46102;-64
2020/12/11 01:02:20;;;;;;;30.58;12.95;;;;;;;0.61;71.57;100301.84;680791;28;22524;-64
2020/12/11 01:02:42;;;;;;;32.80;13.32;;;;;;;0.61;71.50;100300.97;680321;29;46808;-65
2020/12/11 01:03:03;;;;;;;37.42;14.05;;;;;;;0.60;71.57;100304.59;681296;28;24397;-64
2020/12/11 01:03:24;;;;;;;40.67;14.05;;;;;;;0.60;71.74;100296.63;681229;28;21533;-65
2020/12/11 01:03:46;;;;;;;32.97;12.75;;;;;;;0.62;71.71;100294.69;681355;28;22516;-65
2020/12/11 01:04:07;;;;;;;37.28;13.63;;;;;;;0.57;71.70;100292.41;680536;28;46292;-65
2020/12/11 01:04:29;;;;;;;39.08;14.05;;;;;;;0.60;71.67;100296.63;681600;28;46745;-64
2020/12/11 01:04:50;;;;;;;39.55;14.52;;;;;;;0.60;71.78;100299.28;682513;28;21236;-63
2020/12/11 01:05:11;;;;;;;41.97;15.20;;;;;;;0.60;71.63;100296.63;681341;28;22386;-64
2020/12/11 01:05:35;;;;;;;37.97;13.98;;;;;;;0.59;71.65;100301.09;682338;28;23462;-64
2020/12/11 01:05:57;;;;;;;35.58;13.23;;;;;;;0.59;71.77;100295.78;680083;28;90278;-63
2020/12/11 01:06:18;;;;;;;37.78;13.75;;;;;;;0.58;71.58;100291.44;679874;29;46403;-64
2020/12/11 01:06:39;;;;;;;39.05;14.27;;;;;;;0.60;71.80;100292.16;681422;28;21361;-65
2020/12/11 01:07:00;;;;;;;33.65;13.48;;;;;;;0.53;71.68;100281.19;681156;28;21331;-64
2020/12/11 01:07:22;;;;;;;34.15;14.15;;;;;;;0.62;71.71;100295.53;682701;28;45284;-64
2020/12/11 01:07:43;;;;;;;38.08;14.55;;;;;;;0.62;71.85;100295.53;683816;28;21550;-64
2020/12/11 01:08:05;;;;;;;40.20;15.07;;;;;;;0.59;71.71;100286.97;684202;28;8658;-64
2020/12/11 01:08:26;;;;;;;40.97;14.93;;;;;;;0.61;71.72;100293.00;683425;28;22359;-64
2020/12/11 01:08:48;;;;;;;39.70;13.63;;;;;;;0.61;71.66;100296.50;682831;28;45272;-65
2020/12/11 01:09:10;;;;;;;41.47;14.18;;;;;;;0.60;71.91;100297.47;680732;29;23879;-64
2020/12/11 01:09:32;;;;;;;34.72;13.82;;;;;;;0.61;71.87;100293.84;676987;29;69317;-64
2020/12/11 01:09:53;;;;;;;35.03;13.73;;;;;;;0.62;71.83;100292.88;678894;29;883;-64
2020/12/11 01:10:14;;;;;;;33.80;12.98;;;;;;;0.63;71.81;100297.22;678137;29;21891;-65
2020/12/11 01:10:35;;;;;;;37.55;13.95;;;;;;;0.60;71.84;100294.81;678102;29;21306;-64
2020/12/11 01:10:57;;;;;;;39.55;14.48;;;;;;;0.59;71.74;100298.44;677964;29;44386;-64
2020/12/11 01:11:18;;;;;;;37.83;14.35;;;;;;;0.59;71.93;100298.44;680964;29;23383;-63
2020/12/11 01:11:39;;;;;;;34.85;13.73;;;;;;;0.59;71.78;100303.75;680885;28;34912;-64
2020/12/11 01:12:01;;;;;;;34.22;14.57;;;;;;;0.59;71.90;100301.09;681824;28;893;-63
2020/12/11 01:12:22;;;;;;;38.83;14.57;;;;;;;0.60;72.00;100305.44;686993;28;20831;-65
2020/12/11 01:12:44;;;;;;;37.92;14.23;;;;;;;0.61;71.91;100300.97;691524;28;44593;-65
2020/12/11 01:13:05;;;;;;;37.30;14.65;;;;;;;0.59;72.01;100301.09;692109;28;22394;-64
2020/12/11 01:13:26;;;;;;;40.80;14.15;;;;;;;0.59;72.10;100305.56;692062;28;22912;-64
2020/12/11 01:13:48;;;;;;;37.15;13.85;;;;;;;0.59;71.91;100303.75;691673;28;44347;-64
2020/12/11 01:14:09;;;;;;;39.70;13.95;;;;;;;0.60;71.88;100296.63;692113;28;23161;-65
2020/12/11 01:14:30;;;;;;;36.45;13.88;;;;;;;0.59;71.97;100298.44;691511;28;45229;-64
2020/12/11 01:14:52;;;;;;;36.67;14.98;;;;;;;0.60;72.01;100304.59;692226;28;22568;-64
2020/12/11 01:15:13;;;;;;;40.03;14.43;;;;;;;0.61;71.96;100296.50;692232;28;21555;-63
2020/12/11 01:15:34;;;;;;;36.90;14.00;;;;;;;0.63;71.80;100297.22;691490;28;44398;-63
2020/12/11 01:15:56;;;;;;;38.42;13.77;;;;;;;0.61;71.80;100298.31;692450;28;23047;-64
2020/12/11 01:16:17;;;;;;;40.38;14.65;;;;;;;0.60;71.94;100305.44;691250;28;46489;-64
2020/12/11 01:16:39;;;;;;;37.20;14.32;;;;;;;0.57;71.92;100299.53;692116;28;22422;-64
2020/12/11 01:17:00;;;;;;;33.63;13.35;;;;;;;0.58;72.07;100301.22;692062;28;23417;-64
2020/12/11 01:17:22;;;;;;;35.92;13.75;;;;;;;0.57;71.91;100300.38;691820;28;23459;-64
2020/12/11 01:17:43;;;;;;;35.13;14.32;;;;;;;0.57;72.04;100302.19;691540;28;46338;-64
2020/12/11 01:18:04;;;;;;;40.20;14.63;;;;;;;0.57;72.05;100299.53;692390;28;21621;-65
2020/12/11 01:18:25;;;;;;;36.58;13.45;;;;;;;0.56;71.98;100298.69;691632;28;46383;-64
2020/12/11 01:18:47;;;;;;;37.83;14.02;;;;;;;0.56;72.13;100306.66;692264;28;22490;-63
2020/12/11 01:19:08;;;;;;;39.08;13.68;;;;;;;0.55;72.00;100299.66;694931;28;19261;-64
2020/12/11 01:19:29;;;;;;;34.25;13.73;;;;;;;0.55;72.06;100297.00;693820;28;46367;-64
2020/12/11 01:19:51;;;;;;;34.10;13.25;;;;;;;0.55;72.15;100299.66;692084;28;22367;-64
2020/12/11 01:20:12;;;;;;;34.33;13.77;;;;;;;0.56;71.97;100296.03;691378;28;46310;-64
2020/12/11 01:20:33;;;;;;;32.80;13.32;;;;;;;0.54;72.00;100297.97;693517;28;9102;-65
2020/12/11 01:20:55;;;;;;;33.80;13.35;;;;;;;0.57;71.96;100296.88;693508;28;22387;-63
2020/12/11 01:21:16;;;;;;;37.10;13.60;;;;;;;0.57;72.02;100296.88;693308;28;23471;-64
2020/12/11 01:21:38;;;;;;;38.28;14.68;;;;;;;0.57;71.90;100297.72;692359;28;45248;-64
2020/12/11 01:22:04;;;;;;;34.83;14.07;;;;;;;0.55;71.92;100291.69;693070;28;967;-64
2020/12/11 01:22:25;;;;;;;36.92;13.68;;;;;;;0.54;72.02;100290.81;687996;28;137795;-64
2020/12/11 01:22:47;;;;;;;37.35;13.88;;;;;;;0.55;72.02;100297.00;692353;28;23412;-64
2020/12/11 01:23:08;;;;;;;35.00;13.10;;;;;;;0.52;72.00;100298.09;692677;28;1487;-64
2020/12/11 01:23:29;;;;;;;33.95;13.13;;;;;;;0.54;71.91;100298.78;692251;28;21548;-64
2020/12/11 01:23:51;;;;;;;35.85;13.23;;;;;;;0.57;71.82;100297.72;692170;28;22555;-64
2020/12/11 01:24:13;;;;;;;34.53;13.15;;;;;;;0.57;71.80;100296.88;691725;28;21526;-64
2020/12/11 01:24:34;;;;;;;37.08;13.63;;;;;;;0.51;71.85;100291.06;690431;28;69262;-64
2020/12/11 01:24:57;;;;;;;31.17;13.45;;;;;;;0.57;71.84;100295.06;691900;28;23439;-64
2020/12/11 01:25:18;;;;;;;31.63;13.32;;;;;;;0.58;71.76;100304.72;690610;28;63629;-64
2020/12/11 01:25:39;;;;;;;36.05;13.27;;;;;;;0.57;71.81;100300.38;692117;28;22372;-64
2020/12/11 01:26:01;;;;;;;32.10;12.63;;;;;;;0.58;71.80;100290.59;692295;28;21703;-63
2020/12/11 01:26:23;;;;;;;34.33;13.13;;;;;;;0.56;71.81;100295.19;691526;28;46351;-64
2020/12/11 01:26:45;;;;;;;34.15;13.68;;;;;;;0.57;71.69;100291.56;691578;28;46334;-64
2020/12/11 01:27:06;;;;;;;33.60;13.63;;;;;;;0.54;71.70;100287.34;691173;28;45102;-65
2020/12/11 01:27:28;;;;;;;31.95;13.73;;;;;;;0.51;71.60;100296.38;692161;28;23422;-64
2020/12/11 01:27:49;;;;;;;31.02;12.80;;;;;;;0.54;71.71;100293.47;691546;28;46339;-64
2020/12/11 01:28:11;;;;;;;31.63;13.02;;;;;;;0.56;71.56;100300.50;692191;28;23107;-64
2020/12/11 01:28:32;;;;;;;32.10;12.85;;;;;;;0.56;71.64;100296.03;691537;28;45233;-65
2020/12/11 01:28:54;;;;;;;32.38;12.73;;;;;;;0.55;71.61;100289.03;692355;28;22407;-64
2020/12/11 01:29:16;;;;;;;32.35;13.13;;;;;;;0.54;71.65;100288.16;691305;28;46392;-64
2020/12/11 01:29:37;;;;;;;30.85;12.43;;;;;;;0.56;71.62;100293.38;691635;28;45252;-63
2020/12/11 01:29:59;;;;;;;34.35;12.60;;;;;;;0.54;71.63;100285.50;694008;28;957;-64
2020/12/11 01:30:20;;;;;;;31.58;12.25;;;;;;;0.56;71.48;100290.69;690877;28;12849;-64
2020/12/11 01:30:42;;;;;;;32.08;12.90;;;;;;;0.58;71.34;100290.59;691234;28;9449;-64
2020/12/11 01:31:03;;;;;;;30.13;12.18;;;;;;;0.51;71.49;100277.78;689879;28;9718;-64
2020/12/11 01:31:24;;;;;;;30.15;12.18;;;;;;;0.59;71.57;100289.63;689462;28;22386;-65
2020/12/11 01:31:46;;;;;;;26.45;11.98;;;;;;;0.58;71.44;100291.44;690471;28;913;-64
2020/12/11 01:32:08;;;;;;;32.13;12.40;;;;;;;0.56;71.34;100290.69;692071;28;22422;-64
2020/12/11 01:32:31;;;;;;;31.98;12.20;;;;;;;0.58;71.52;100290.59;691294;28;38259;-64
2020/12/11 01:32:52;;;;;;;33.65;12.60;;;;;;;0.57;71.43;100288.91;691003;28;58271;-64
2020/12/11 01:33:13;;;;;;;35.13;13.00;;;;;;;0.57;71.33;100288.91;692409;28;21551;-64
2020/12/11 01:33:35;;;;;;;32.55;13.25;;;;;;;0.56;71.28;100285.38;692905;28;22554;-64
2020/12/11 01:33:56;;;;;;;31.23;12.55;;;;;;;0.56;71.35;100285.38;691612;28;46587;-65
2020/12/11 01:34:18;;;;;;;30.13;12.32;;;;;;;0.54;71.52;100287.34;693151;28;826;-64
2020/12/11 01:34:39;;;;;;;32.00;12.20;;;;;;;0.56;71.40;100288.03;691900;28;22401;-65
2020/12/11 01:35:01;;;;;;;31.00;12.30;;;;;;;0.57;71.54;100291.56;692410;28;4160;-64
2020/12/11 01:35:22;;;;;;;28.52;12.07;;;;;;;0.54;71.48;100282.84;691285;28;47534;-64
2020/12/11 01:35:44;;;;;;;31.67;12.73;;;;;;;0.53;71.39;100286.50;692858;28;9614;-63
2020/12/11 01:36:05;;;;;;;30.38;12.93;;;;;;;0.52;71.51;100291.94;691621;28;46391;-63
2020/12/11 01:36:26;;;;;;;32.92;12.65;;;;;;;0.50;71.47;100286.75;692388;28;23327;-64
2020/12/11 01:36:48;;;;;;;32.08;12.23;;;;;;;0.53;71.70;100296.25;691197;28;45420;-64
2020/12/11 01:37:10;;;;;;;30.00;12.32;;;;;;;0.52;71.54;100289.28;691797;28;45282;-64
2020/12/11 01:37:32;;;;;;;33.78;13.13;;;;;;;0.55;71.53;100289.03;692872;28;12075;-63
2020/12/11 01:37:53;;;;;;;33.85;12.68;;;;;;;0.55;71.55;100294.34;691136;28;60476;-64
2020/12/11 01:38:15;;;;;;;32.00;12.73;;;;;;;0.54;71.53;100282.84;692051;28;22411;-65
2020/12/11 01:38:36;;;;;;;29.85;12.75;;;;;;;0.56;71.52;100289.88;691209;28;46415;-64
2020/12/11 01:38:58;;;;;;;28.65;12.68;;;;;;;0.55;71.56;100291.69;692238;28;21594;-64
2020/12/11 01:39:20;;;;;;;28.88;12.40;;;;;;;0.51;71.65;100288.41;692404;28;21497;-64
2020/12/11 01:39:42;;;;;;;31.05;12.95;;;;;;;0.47;71.75;100284.34;691571;28;49213;-64
2020/12/11 01:40:04;;;;;;;29.58;12.00;;;;;;;0.47;71.62;100280.81;692684;28;1532;-64
2020/12/11 01:40:26;;;;;;;29.40;12.18;;;;;;;0.51;71.61;100285.75;691339;28;46350;-64